N828WW KMCO-KEVB
Flight info
| Callsign | N828WW |
|---|---|
| Flight time | 0h 16m |
| Altitude | VFR |
| Route | NORTHEAST |
| Aircraft | BE56/L-DOV/C |
Departure
| Time | 2026-05-05 00:45 |
|---|---|
| Airport | Orlando International Airport (KMCO) |
Arrival
| Time | 2026-05-05 01:02 |
|---|---|
| Airport | New Smyrna Beach Municipal Airport (KEVB) |
| Time | Latitude | Longitude | Altitude | Speed | Heading |
|---|---|---|---|---|---|
| 2026-05-05 00:40 | 28.42651 | -81.32803 | 93 ft | 0 kts | 271° |
| 2026-05-05 00:40 | 28.42652 | -81.32850 | 93 ft | 20 kts | 270° |
| 2026-05-05 00:40 | 28.42581 | -81.32917 | 93 ft | 14 kts | 185° |
| 2026-05-05 00:41 | 28.42521 | -81.32919 | 93 ft | 9 kts | 176° |
| 2026-05-05 00:41 | 28.42429 | -81.32922 | 92 ft | 17 kts | 176° |
| 2026-05-05 00:41 | 28.42277 | -81.32914 | 93 ft | 26 kts | 179° |
| 2026-05-05 00:41 | 28.42069 | -81.32911 | 94 ft | 34 kts | 181° |
| 2026-05-05 00:42 | 28.41819 | -81.32906 | 93 ft | 35 kts | 181° |
| 2026-05-05 00:42 | 28.41589 | -81.32898 | 93 ft | 32 kts | 189° |
| 2026-05-05 00:42 | 28.41537 | -81.32817 | 93 ft | 14 kts | 90° |
| 2026-05-05 00:42 | 28.41537 | -81.32764 | 94 ft | 0 kts | 92° |
| 2026-05-05 00:43 | 28.41549 | -81.32681 | 95 ft | 14 kts | 43° |
| 2026-05-05 00:44 | 28.41593 | -81.32663 | 95 ft | 0 kts | 359° |
| 2026-05-05 00:44 | 28.41813 | -81.32656 | 94 ft | 69 kts | 358° |
| 2026-05-05 00:45 | 28.42455 | -81.32688 | 124 ft | 108 kts | 2° |
| 2026-05-05 00:45 | 28.43253 | -81.32716 | 298 ft | 119 kts | 5° |
| 2026-05-05 00:45 | 28.44097 | -81.32699 | 558 ft | 124 kts | 9° |
| 2026-05-05 00:45 | 28.44759 | -81.32182 | 852 ft | 116 kts | 71° |
| 2026-05-05 00:46 | 28.44885 | -81.31323 | 1420 ft | 109 kts | 83° |
| 2026-05-05 00:46 | 28.45028 | -81.30348 | 1514 ft | 141 kts | 83° |
| 2026-05-05 00:46 | 28.45189 | -81.29171 | 1519 ft | 162 kts | 82° |
| 2026-05-05 00:46 | 28.45351 | -81.27859 | 1508 ft | 172 kts | 83° |
| 2026-05-05 00:47 | 28.45509 | -81.26484 | 1507 ft | 179 kts | 82° |
| 2026-05-05 00:47 | 28.45655 | -81.25061 | 1509 ft | 183 kts | 83° |
| 2026-05-05 00:47 | 28.45799 | -81.23624 | 1505 ft | 183 kts | 84° |
| 2026-05-05 00:47 | 28.45950 | -81.22182 | 1505 ft | 185 kts | 83° |
| 2026-05-05 00:48 | 28.46053 | -81.21217 | 1532 ft | 185 kts | 83° |
| 2026-05-05 00:48 | 28.46370 | -81.19866 | 1836 ft | 173 kts | 58° |
| 2026-05-05 00:48 | 28.47280 | -81.19232 | 2629 ft | 144 kts | 21° |
| 2026-05-05 00:48 | 28.48151 | -81.18964 | 3407 ft | 116 kts | 21° |
| 2026-05-05 00:49 | 28.48864 | -81.18722 | 4021 ft | 101 kts | 21° |
| 2026-05-05 00:49 | 28.49577 | -81.18434 | 4338 ft | 116 kts | 21° |
| 2026-05-05 00:49 | 28.50382 | -81.18069 | 4540 ft | 140 kts | 21° |
| 2026-05-05 00:49 | 28.51402 | -81.17585 | 4416 ft | 175 kts | 22° |
| 2026-05-05 00:50 | 28.52607 | -81.17028 | 4226 ft | 197 kts | 22° |
| 2026-05-05 00:50 | 28.53912 | -81.16449 | 4016 ft | 204 kts | 22° |
| 2026-05-05 00:50 | 28.55252 | -81.15888 | 3783 ft | 206 kts | 21° |
| 2026-05-05 00:50 | 28.56603 | -81.15323 | 3537 ft | 208 kts | 22° |
| 2026-05-05 00:51 | 28.57969 | -81.14771 | 3274 ft | 208 kts | 22° |
| 2026-05-05 00:51 | 28.59340 | -81.14230 | 3005 ft | 208 kts | 22° |
| 2026-05-05 00:51 | 28.60716 | -81.13702 | 2734 ft | 209 kts | 22° |
| 2026-05-05 00:51 | 28.62092 | -81.13186 | 2511 ft | 207 kts | 22° |
| 2026-05-05 00:52 | 28.63420 | -81.12698 | 2504 ft | 196 kts | 22° |
| 2026-05-05 00:52 | 28.64701 | -81.12241 | 2495 ft | 191 kts | 21° |
| 2026-05-05 00:52 | 28.65956 | -81.11791 | 2492 ft | 187 kts | 22° |
| 2026-05-05 00:52 | 28.67188 | -81.11348 | 2494 ft | 185 kts | 22° |
| 2026-05-05 00:53 | 28.68418 | -81.10904 | 2493 ft | 185 kts | 22° |
| 2026-05-05 00:53 | 28.69647 | -81.10455 | 2494 ft | 188 kts | 22° |
| 2026-05-05 00:53 | 28.70910 | -81.09992 | 2503 ft | 193 kts | 22° |
| 2026-05-05 00:53 | 28.72193 | -81.09515 | 2506 ft | 195 kts | 22° |
| 2026-05-05 00:54 | 28.73495 | -81.09040 | 2511 ft | 197 kts | 22° |
| 2026-05-05 00:54 | 28.74782 | -81.08559 | 2509 ft | 198 kts | 22° |
| 2026-05-05 00:54 | 28.76100 | -81.08081 | 2508 ft | 200 kts | 22° |
| 2026-05-05 00:54 | 28.77420 | -81.07597 | 2513 ft | 199 kts | 22° |
| 2026-05-05 00:55 | 28.78745 | -81.07110 | 2506 ft | 201 kts | 22° |
| 2026-05-05 00:55 | 28.80087 | -81.06609 | 2508 ft | 200 kts | 22° |
| 2026-05-05 00:55 | 28.81396 | -81.06119 | 2509 ft | 200 kts | 22° |
| 2026-05-05 00:55 | 28.82718 | -81.05631 | 2504 ft | 199 kts | 22° |
| 2026-05-05 00:56 | 28.84037 | -81.05145 | 2516 ft | 199 kts | 21° |
| 2026-05-05 00:56 | 28.85361 | -81.04669 | 2517 ft | 200 kts | 21° |
| 2026-05-05 00:56 | 28.86686 | -81.04189 | 2522 ft | 200 kts | 22° |
| 2026-05-05 00:56 | 28.88016 | -81.03725 | 2517 ft | 201 kts | 14° |
| 2026-05-05 00:57 | 28.89429 | -81.03736 | 2518 ft | 205 kts | 358° |
| 2026-05-05 00:57 | 28.90848 | -81.03932 | 2516 ft | 205 kts | 357° |
| 2026-05-05 00:57 | 28.92259 | -81.04120 | 2522 ft | 203 kts | 0° |
| 2026-05-05 00:57 | 28.93650 | -81.03982 | 2523 ft | 200 kts | 14° |
| 2026-05-05 00:58 | 28.95016 | -81.03687 | 2526 ft | 200 kts | 15° |
| 2026-05-05 00:58 | 28.96376 | -81.03380 | 2371 ft | 198 kts | 17° |
| 2026-05-05 00:58 | 28.97697 | -81.02977 | 2197 ft | 196 kts | 20° |
| 2026-05-05 00:58 | 28.99004 | -81.02545 | 2016 ft | 195 kts | 21° |
| 2026-05-05 00:59 | 29.00297 | -81.02106 | 1839 ft | 191 kts | 20° |
| 2026-05-05 00:59 | 29.01542 | -81.01700 | 1654 ft | 179 kts | 20° |
| 2026-05-05 00:59 | 29.02700 | -81.01342 | 1461 ft | 166 kts | 20° |
| 2026-05-05 00:59 | 29.03794 | -81.01009 | 1265 ft | 160 kts | 17° |
| 2026-05-05 01:00 | 29.04884 | -81.00812 | 1058 ft | 157 kts | 12° |
| 2026-05-05 01:00 | 29.05875 | -81.00599 | 1092 ft | 127 kts | 26° |
| 2026-05-05 01:00 | 29.06470 | -81.00012 | 1034 ft | 110 kts | 65° |
| 2026-05-05 01:00 | 29.06569 | -80.99107 | 530 ft | 127 kts | 104° |
| 2026-05-05 01:01 | 29.06307 | -80.98147 | 465 ft | 125 kts | 104° |
| 2026-05-05 01:01 | 29.06067 | -80.97166 | 343 ft | 126 kts | 104° |
| 2026-05-05 01:01 | 29.05844 | -80.96303 | 200 ft | 104 kts | 108° |
| 2026-05-05 01:01 | 29.05637 | -80.95535 | 62 ft | 97 kts | 107° |
| 2026-05-05 01:02 | 29.05461 | -80.94880 | 15 ft | 72 kts | 105° |
| 2026-05-05 01:02 | 29.05394 | -80.94591 | 15 ft | 8 kts | 352° |
| 2026-05-05 01:02 | 29.05435 | -80.94621 | 14 ft | 14 kts | 19° |
| 2026-05-05 01:02 | 29.05490 | -80.94602 | 14 ft | 10 kts | 17° |
| 2026-05-05 01:03 | 29.05545 | -80.94628 | 13 ft | 11 kts | 289° |
| 2026-05-05 01:03 | 29.05574 | -80.94736 | 12 ft | 20 kts | 287° |
| 2026-05-05 01:03 | 29.05637 | -80.94973 | 11 ft | 30 kts | 284° |
| 2026-05-05 01:03 | 29.05630 | -80.95155 | 11 ft | 22 kts | 243° |
| 2026-05-05 01:04 | 29.05601 | -80.95217 | 11 ft | 0 kts | 245° |
| 2026-05-05 01:05 | 29.05597 | -80.95227 | 11 ft | 6 kts | 245° |
| 2026-05-05 01:05 | 29.05561 | -80.95254 | 11 ft | 18 kts | 135° |
| 2026-05-05 01:06 | 29.05467 | -80.94893 | 15 ft | 77 kts | 107° |
| 2026-05-05 01:06 | 29.05270 | -80.94195 | 117 ft | 101 kts | 108° |
| 2026-05-05 01:06 | 29.04829 | -80.93446 | 180 ft | 126 kts | 137° |
| 2026-05-05 01:06 | 29.04002 | -80.93112 | 342 ft | 135 kts | 174° |
| 2026-05-05 01:07 | 29.03037 | -80.93090 | 519 ft | 139 kts | 174° |
| 2026-05-05 01:07 | 29.02118 | -80.93023 | 859 ft | 132 kts | 172° |
| 2026-05-05 01:07 | 29.01188 | -80.92965 | 1254 ft | 133 kts | 171° |
| 2026-05-05 01:07 | 29.00256 | -80.92919 | 1710 ft | 135 kts | 171° |
| 2026-05-05 01:08 | 28.99323 | -80.92886 | 2195 ft | 133 kts | 171° |
| 2026-05-05 01:08 | 28.98391 | -80.92850 | 2648 ft | 136 kts | 171° |
| 2026-05-05 01:08 | 28.97448 | -80.92800 | 3109 ft | 135 kts | 172° |